Vantage_wave — D5GO4 — position and weather

sailwx.info

Track history (hours):
 
Tides and Currents Weather Stations Pressure Air Temp Water Temp Dewpoint Dewpoint Depression Visibility Wind Speed Wind Dir Waves Ship Positions

Vantage_wave

Last reported at 2018-Feb-12 15:55 UTC. Time now 2018-Feb-24 18:26 UTC.
Position N 40°59' E 028°60'.
Warning: this ship's position is 12 days out of date.

Length 180 m; draft 10.5 m.

Type: Cargo ship. MMSI: 636016520.

Date/timePositionNaut miles runAvg speedWind from/ knotsBaromVisibWave heightAir tempDewpointWater temp
2018-Feb-12 15:55N 40°59' E 028°60'6 6.2
2018-Feb-12 14:57N 40°54' E 028°56'3 6.1
2018-Feb-12 14:30N 40°51' E 028°56'3 6.2
2018-Feb-12 13:58N 40°48' E 028°57'1 1.2
2018-Feb-12 13:25N 40°47' E 028°56'0 0.3
2018-Feb-12 11:59N 40°48' E 028°56'0 0.3
2018-Feb-12 11:23N 40°48' E 028°56'0 0.3
2018-Feb-12 10:58N 40°48' E 028°56'0 0.2
2018-Feb-12 10:29N 40°48' E 028°56'1 0.2
2018-Feb-12 07:19N 40°48' E 028°56'  
2018-Feb-08 23:00N 35°60' E 014°25'1 0.1
2018-Feb-08 17:00N 35°60' E 014°26'59711.8
2018-Feb-06 14:12N 37°07' E 002°08'312.8
2018-Feb-06 14:00N 37°06' E 002°05'612.9
2018-Feb-06 13:30N 37°04' E 001°57'612.8
2018-Feb-06 13:00N 37°03' E 001°49'612.6
2018-Feb-06 12:30N 37°01' E 001°42'612.4
2018-Feb-06 12:00N 36°59' E 001°34'  
2018-Feb-04 06:31N 38°42' W 010°06'112.5
2018-Feb-04 06:25N 38°43' W 010°06'512.2
2018-Feb-04 05:58N 38°49' W 010°06'612.2
2018-Feb-04 05:29N 38°55' W 010°06'611.7
2018-Feb-04 05:00N 39°00' W 010°06'611.8
2018-Feb-04 04:30N 39°06' W 010°06'611.9
2018-Feb-04 04:00N 39°12' W 010°06'  
Track history (hours):
 
Tides and Currents Weather Stations Pressure Air Temp Water Temp Dewpoint Dewpoint Depression Visibility Wind Speed Wind Dir Waves Ship Positions

Vantage_wave

Last reported at 2018-Feb-12 15:55 UTC. Time now 2018-Feb-24 18:26 UTC.
Position N 40°59' E 028°60'.
Warning: this ship's position is 12 days out of date.

Length 180 m; draft 10.5 m.

Type: Cargo ship. MMSI: 636016520.

Date/timePositionNaut miles runAvg speedWind from/ knotsBaromVisibWave heightAir tempDewpointWater temp
2018-Feb-12 15:55N 40°59' E 028°60'6 6.2
2018-Feb-12 14:57N 40°54' E 028°56'3 6.1
2018-Feb-12 14:30N 40°51' E 028°56'3 6.2
2018-Feb-12 13:58N 40°48' E 028°57'1 1.2
2018-Feb-12 13:25N 40°47' E 028°56'0 0.3
2018-Feb-12 11:59N 40°48' E 028°56'0 0.3
2018-Feb-12 11:23N 40°48' E 028°56'0 0.3
2018-Feb-12 10:58N 40°48' E 028°56'0 0.2
2018-Feb-12 10:29N 40°48' E 028°56'1 0.2
2018-Feb-12 07:19N 40°48' E 028°56'  
2018-Feb-08 23:00N 35°60' E 014°25'1 0.1
2018-Feb-08 17:00N 35°60' E 014°26'59711.8
2018-Feb-06 14:12N 37°07' E 002°08'312.8
2018-Feb-06 14:00N 37°06' E 002°05'612.9
2018-Feb-06 13:30N 37°04' E 001°57'612.8
2018-Feb-06 13:00N 37°03' E 001°49'612.6
2018-Feb-06 12:30N 37°01' E 001°42'612.4
2018-Feb-06 12:00N 36°59' E 001°34'  
2018-Feb-04 06:31N 38°42' W 010°06'112.5
2018-Feb-04 06:25N 38°43' W 010°06'512.2
2018-Feb-04 05:58N 38°49' W 010°06'612.2
2018-Feb-04 05:29N 38°55' W 010°06'611.7
2018-Feb-04 05:00N 39°00' W 010°06'611.8
2018-Feb-04 04:30N 39°06' W 010°06'611.9
2018-Feb-04 04:00N 39°12' W 010°06'  

Dump ship's entire track history